createdAt,value
2023-02-21T00:00:00.712Z,6
2023-02-21T00:05:00.654Z,6
2023-02-21T00:10:00.676Z,5
2023-02-21T00:15:00.629Z,5
2023-02-21T00:20:00.671Z,7
2023-02-21T00:25:00.756Z,6
2023-02-21T00:30:00.648Z,7
2023-02-21T00:35:00.628Z,7
2023-02-21T00:40:00.635Z,7
2023-02-21T00:45:00.608Z,7
2023-02-21T00:50:00.641Z,6
2023-02-21T00:55:00.612Z,7
2023-02-21T01:00:00.677Z,8
2023-02-21T01:05:00.628Z,6
2023-02-21T01:10:00.651Z,7
2023-02-21T01:15:00.662Z,7
2023-02-21T01:20:00.630Z,7
2023-02-21T01:25:00.677Z,7
2023-02-21T01:30:00.641Z,6
2023-02-21T01:35:00.634Z,7
2023-02-21T01:40:00.636Z,7
2023-02-21T01:45:00.615Z,6
2023-02-21T01:50:00.660Z,7
2023-02-21T01:55:00.645Z,8
2023-02-21T02:00:00.681Z,8
2023-02-21T02:05:00.656Z,7
2023-02-21T02:10:00.640Z,7
2023-02-21T02:15:00.650Z,8
2023-02-21T02:20:00.673Z,7
2023-02-21T02:25:00.637Z,7
2023-02-21T02:30:00.651Z,7
2023-02-21T02:35:00.616Z,7
2023-02-21T02:40:00.653Z,8
2023-02-21T02:45:04.618Z,7
2023-02-21T02:50:00.664Z,7
2023-02-21T02:55:00.657Z,7
2023-02-21T03:00:00.657Z,7
2023-02-21T03:05:00.617Z,7
2023-02-21T03:10:00.756Z,7
2023-02-21T03:15:00.661Z,7
2023-02-21T03:20:00.603Z,8
2023-02-21T03:25:00.644Z,7
2023-02-21T03:30:00.645Z,6
2023-02-21T03:35:00.617Z,7
2023-02-21T03:40:00.644Z,6
2023-02-21T03:45:00.668Z,6
2023-02-21T03:50:00.651Z,7
2023-02-21T03:55:00.628Z,7
2023-02-21T04:00:00.631Z,7
2023-02-21T04:05:00.632Z,6
2023-02-21T04:10:00.663Z,6
2023-02-21T04:15:00.611Z,7
2023-02-21T04:20:00.819Z,6
2023-02-21T04:25:00.618Z,5
2023-02-21T04:30:00.642Z,6
2023-02-21T04:35:00.647Z,6
2023-02-21T04:40:00.666Z,5
2023-02-21T04:45:00.958Z,5
2023-02-21T04:50:00.667Z,6
2023-02-21T04:55:00.632Z,6
2023-02-21T05:00:00.647Z,6
2023-02-21T05:05:00.664Z,4
2023-02-21T05:10:00.647Z,4
2023-02-21T05:15:00.635Z,5
2023-02-21T05:20:00.650Z,6
2023-02-21T05:25:00.616Z,6
2023-02-21T05:30:00.654Z,5
2023-02-21T05:35:00.647Z,5
2023-02-21T05:40:00.644Z,5
2023-02-21T05:45:00.671Z,5
2023-02-21T05:50:00.665Z,5
2023-02-21T05:55:00.612Z,4
2023-02-21T06:00:00.661Z,5
2023-02-21T06:05:00.615Z,6
2023-02-21T06:10:00.645Z,5
2023-02-21T06:15:00.719Z,5
2023-02-21T06:20:00.642Z,5
2023-02-21T06:25:00.655Z,5
2023-02-21T06:30:00.641Z,4
2023-02-21T06:35:00.608Z,5
2023-02-21T06:40:00.672Z,4
2023-02-21T06:45:00.641Z,3
2023-02-21T06:50:00.663Z,3
2023-02-21T06:55:00.630Z,4
2023-02-21T07:00:00.652Z,3
2023-02-21T07:05:00.707Z,4
2023-02-21T07:10:00.652Z,5
2023-02-21T07:15:00.798Z,4
2023-02-21T07:20:00.616Z,4
2023-02-21T07:25:00.650Z,2
2023-02-21T07:30:00.655Z,3
2023-02-21T07:35:00.644Z,3
2023-02-21T07:40:00.634Z,4
2023-02-21T07:45:00.628Z,5
2023-02-21T07:50:00.674Z,5
2023-02-21T07:55:00.613Z,3
2023-02-21T08:00:00.669Z,5
2023-02-21T08:05:00.678Z,4
2023-02-21T08:10:00.642Z,6
2023-02-21T08:15:00.667Z,5
2023-02-21T08:20:00.608Z,6
2023-02-21T08:25:00.655Z,4
2023-02-21T08:30:00.758Z,5
2023-02-21T08:35:00.617Z,5
2023-02-21T08:40:00.624Z,5
2023-02-21T08:45:00.699Z,4
2023-02-21T08:50:00.627Z,4
2023-02-21T08:55:00.652Z,4
2023-02-21T09:00:00.643Z,4
2023-02-21T09:05:00.642Z,4
2023-02-21T09:10:01.302Z,5
2023-02-21T09:15:00.653Z,4
2023-02-21T09:20:00.620Z,4
2023-02-21T09:25:00.609Z,4
2023-02-21T09:30:00.649Z,4
2023-02-21T09:35:00.610Z,5
2023-02-21T09:40:00.637Z,5
2023-02-21T09:45:01.191Z,6
2023-02-21T09:50:00.619Z,6
2023-02-21T09:55:00.649Z,6
2023-02-21T10:00:00.629Z,6
2023-02-21T10:05:00.771Z,6
2023-02-21T10:10:00.644Z,4
2023-02-21T10:15:00.635Z,4
2023-02-21T10:20:00.601Z,5
2023-02-21T10:25:00.628Z,5
2023-02-21T10:30:00.633Z,4
2023-02-21T10:35:00.665Z,4
2023-02-21T10:40:00.659Z,3
2023-02-21T10:45:00.618Z,4
2023-02-21T10:50:00.644Z,4
2023-02-21T10:55:00.866Z,5
2023-02-21T11:00:00.637Z,6
2023-02-21T11:05:00.657Z,6
2023-02-21T11:10:00.652Z,4
2023-02-21T11:15:00.671Z,5
2023-02-21T11:20:00.649Z,4
2023-02-21T11:25:00.630Z,5
2023-02-21T11:30:00.637Z,5
2023-02-21T11:35:00.635Z,5
2023-02-21T11:40:00.653Z,4
2023-02-21T11:45:00.621Z,6
2023-02-21T11:50:00.650Z,5
2023-02-21T11:55:00.647Z,6
2023-02-21T12:00:00.622Z,5
2023-02-21T12:05:00.666Z,5
2023-02-21T12:10:00.648Z,6
2023-02-21T12:15:00.630Z,4
2023-02-21T12:20:00.637Z,6
2023-02-21T12:25:00.609Z,5
2023-02-21T12:30:00.657Z,5
2023-02-21T12:35:00.619Z,5
2023-02-21T12:40:00.636Z,5
2023-02-21T12:45:00.655Z,6
2023-02-21T12:50:00.646Z,5
2023-02-21T12:55:00.722Z,4
2023-02-21T13:00:00.720Z,5
2023-02-21T13:05:00.646Z,6
2023-02-21T13:10:00.658Z,5
2023-02-21T13:15:00.617Z,6
2023-02-21T13:20:00.650Z,6
2023-02-21T13:25:00.696Z,5
2023-02-21T13:30:00.625Z,4
2023-02-21T13:35:00.665Z,5
2023-02-21T13:40:00.646Z,5
2023-02-21T13:45:00.636Z,5
2023-02-21T13:50:00.649Z,5
2023-02-21T13:55:00.624Z,4
2023-02-21T14:00:00.641Z,4
2023-02-21T14:05:00.646Z,4
2023-02-21T14:10:00.697Z,5
2023-02-21T14:15:00.616Z,3
2023-02-21T14:20:00.671Z,3
2023-02-21T14:25:00.642Z,3
2023-02-21T14:30:00.657Z,3
2023-02-21T14:35:00.656Z,3
2023-02-21T14:40:00.625Z,4
2023-02-21T14:45:00.639Z,3
2023-02-21T14:50:00.647Z,4
2023-02-21T14:55:00.621Z,4
2023-02-21T15:00:00.657Z,3
2023-02-21T15:05:00.744Z,3
2023-02-21T15:10:00.645Z,3
2023-02-21T15:15:00.630Z,2
2023-02-21T15:20:00.727Z,3
2023-02-21T15:25:00.660Z,4
2023-02-21T15:30:00.611Z,3
2023-02-21T15:35:00.632Z,3
2023-02-21T15:40:00.637Z,4
2023-02-21T15:45:00.616Z,3
2023-02-21T15:50:00.669Z,3
2023-02-21T15:55:00.639Z,4
2023-02-21T16:00:00.672Z,1
2023-02-21T16:05:00.609Z,2
2023-02-21T16:15:00.614Z,1
2023-02-21T16:20:00.734Z,0
2023-02-21T16:35:00.392Z,0
2023-02-21T16:40:00.334Z,0
2023-02-21T16:45:00.361Z,0
2023-02-21T16:50:00.390Z,0
2023-02-21T16:55:00.339Z,0
2023-02-21T17:00:00.398Z,0
2023-02-21T17:05:00.369Z,0
2023-02-21T17:10:00.371Z,0
2023-02-21T17:15:00.378Z,0
2023-02-21T17:20:00.367Z,0
2023-02-21T17:25:00.368Z,0
2023-02-21T17:30:00.413Z,0
2023-02-21T17:35:00.405Z,0
2023-02-21T17:40:00.367Z,1
2023-02-21T17:45:00.377Z,1
2023-02-21T17:50:02.814Z,1
2023-02-21T17:55:00.346Z,0
2023-02-21T18:00:00.397Z,0
2023-02-21T18:05:00.433Z,0
2023-02-21T18:10:00.414Z,0
2023-02-21T18:15:00.370Z,0
2023-02-21T18:20:00.382Z,0
2023-02-21T18:25:00.420Z,0
2023-02-21T18:30:00.387Z,0
2023-02-21T18:35:00.398Z,0
2023-02-21T18:40:00.389Z,0
2023-02-21T18:45:02.380Z,0
2023-02-21T18:50:00.377Z,0
2023-02-21T18:55:00.396Z,0
2023-02-21T19:05:00.766Z,0
2023-02-21T19:10:00.552Z,0
2023-02-21T19:15:02.522Z,1
2023-02-21T19:20:00.559Z,0
2023-02-21T19:25:00.568Z,0
2023-02-21T19:30:00.588Z,0
2023-02-21T19:35:00.542Z,0
2023-02-21T19:40:00.521Z,0
2023-02-21T19:45:00.600Z,0
2023-02-21T19:50:00.548Z,1
2023-02-21T19:55:00.544Z,1
2023-02-21T20:00:00.562Z,1
2023-02-21T20:05:00.543Z,0
2023-02-21T20:10:00.506Z,0
2023-02-21T20:15:00.539Z,0
2023-02-21T20:20:00.517Z,0
2023-02-21T20:25:00.574Z,0
2023-02-21T20:30:00.527Z,1
2023-02-21T20:35:00.565Z,0
2023-02-21T20:40:00.545Z,1
2023-02-21T20:45:02.253Z,0
2023-02-21T20:55:00.456Z,0
2023-02-21T21:00:00.322Z,1
2023-02-21T21:05:00.275Z,0
2023-02-21T21:10:00.263Z,1
2023-02-21T21:15:00.318Z,0
2023-02-21T21:20:00.322Z,1
2023-02-21T21:25:00.301Z,1
2023-02-21T21:30:00.303Z,0
2023-02-21T21:35:00.321Z,0
2023-02-21T21:40:00.270Z,0
2023-02-21T21:45:00.312Z,0
2023-02-21T21:50:00.274Z,0
2023-02-21T21:55:00.421Z,0
2023-02-21T22:00:00.331Z,0
2023-02-21T22:05:00.317Z,0
2023-02-21T22:10:00.263Z,0
2023-02-21T22:15:00.287Z,0
2023-02-21T22:20:00.273Z,0
2023-02-21T22:25:00.275Z,0
2023-02-21T22:30:00.278Z,0
2023-02-21T22:35:00.315Z,0
2023-02-21T22:40:00.278Z,0
2023-02-21T22:45:00.341Z,0
2023-02-21T22:50:00.286Z,0
2023-02-21T22:55:00.335Z,0
2023-02-21T23:00:00.460Z,0
2023-02-21T23:05:00.308Z,0
2023-02-21T23:10:00.267Z,0
2023-02-21T23:15:00.306Z,0
2023-02-21T23:20:00.313Z,1
2023-02-21T23:25:00.282Z,0
2023-02-21T23:30:00.837Z,0
2023-02-21T23:35:00.307Z,0
2023-02-21T23:40:00.342Z,0
2023-02-21T23:45:00.273Z,0
2023-02-21T23:50:00.286Z,0
2023-02-21T23:55:00.301Z,0
